sensor_id;sensor_type;location;lat;lon;timestamp;pressure;altitude;pressure_sealevel;temperature;humidity
55517;BME280;41724;51.176;-0.708;2022-11-15T00:01:41;99980.88;;;12.82;58.02
55517;BME280;41724;51.176;-0.708;2022-11-15T00:04:09;99977.56;;;12.78;58.14
55517;BME280;41724;51.176;-0.708;2022-11-15T00:06:37;99975.78;;;12.77;57.92
55517;BME280;41724;51.176;-0.708;2022-11-15T00:09:04;99971.37;;;12.57;58.46
55517;BME280;41724;51.176;-0.708;2022-11-15T00:11:31;99965.61;;;12.73;57.72
55517;BME280;41724;51.176;-0.708;2022-11-15T00:13:58;99965.14;;;12.40;58.31
55517;BME280;41724;51.176;-0.708;2022-11-15T00:16:25;99958.26;;;12.64;58.39
55517;BME280;41724;51.176;-0.708;2022-11-15T00:18:52;99951.15;;;12.17;58.20
55517;BME280;41724;51.176;-0.708;2022-11-15T00:21:19;99947.34;;;12.28;58.40
55517;BME280;41724;51.176;-0.708;2022-11-15T00:23:46;99946.43;;;12.50;58.35
55517;BME280;41724;51.176;-0.708;2022-11-15T00:26:15;99940.90;;;12.36;58.35
55517;BME280;41724;51.176;-0.708;2022-11-15T00:28:42;99939.26;;;11.76;59.53
55517;BME280;41724;51.176;-0.708;2022-11-15T00:31:11;99937.21;;;12.04;59.54
55517;BME280;41724;51.176;-0.708;2022-11-15T00:33:39;99922.84;;;12.54;58.19
55517;BME280;41724;51.176;-0.708;2022-11-15T00:36:07;99918.06;;;12.59;57.95
55517;BME280;41724;51.176;-0.708;2022-11-15T00:38:38;99920.47;;;12.46;58.36
55517;BME280;41724;51.176;-0.708;2022-11-15T00:41:06;99912.08;;;12.00;59.59
55517;BME280;41724;51.176;-0.708;2022-11-15T00:43:34;99905.25;;;11.84;59.54
55517;BME280;41724;51.176;-0.708;2022-11-15T00:46:01;99894.64;;;12.35;60.31
55517;BME280;41724;51.176;-0.708;2022-11-15T00:48:28;99889.40;;;10.84;61.85
55517;BME280;41724;51.176;-0.708;2022-11-15T00:50:56;99884.59;;;11.45;61.52
55517;BME280;41724;51.176;-0.708;2022-11-15T00:53:23;99872.80;;;11.00;63.04
55517;BME280;41724;51.176;-0.708;2022-11-15T00:55:50;99863.37;;;10.98;64.86
55517;BME280;41724;51.176;-0.708;2022-11-15T00:58:17;99867.73;;;11.66;62.47
55517;BME280;41724;51.176;-0.708;2022-11-15T01:00:44;99868.27;;;11.92;61.81
55517;BME280;41724;51.176;-0.708;2022-11-15T01:03:11;99865.84;;;11.98;60.65
55517;BME280;41724;51.176;-0.708;2022-11-15T01:05:38;99859.38;;;12.29;59.50
55517;BME280;41724;51.176;-0.708;2022-11-15T01:08:05;99853.28;;;12.68;58.98
55517;BME280;41724;51.176;-0.708;2022-11-15T01:10:33;99842.12;;;12.52;59.05
55517;BME280;41724;51.176;-0.708;2022-11-15T01:13:00;99836.30;;;12.98;58.76
55517;BME280;41724;51.176;-0.708;2022-11-15T01:15:27;99835.03;;;12.26;59.55
55517;BME280;41724;51.176;-0.708;2022-11-15T01:17:54;99827.78;;;12.71;58.52
55517;BME280;41724;51.176;-0.708;2022-11-15T01:20:21;99821.61;;;12.36;59.00
55517;BME280;41724;51.176;-0.708;2022-11-15T01:22:48;99819.60;;;12.42;58.78
55517;BME280;41724;51.176;-0.708;2022-11-15T01:25:15;99817.21;;;12.61;58.40
55517;BME280;41724;51.176;-0.708;2022-11-15T01:27:42;99809.76;;;12.50;58.20
55517;BME280;41724;51.176;-0.708;2022-11-15T01:30:09;99807.00;;;12.77;58.72
55517;BME280;41724;51.176;-0.708;2022-11-15T01:32:37;99804.91;;;12.46;58.94
55517;BME280;41724;51.176;-0.708;2022-11-15T01:35:04;99799.30;;;12.96;58.70
55517;BME280;41724;51.176;-0.708;2022-11-15T01:37:31;99790.36;;;12.72;57.93
55517;BME280;41724;51.176;-0.708;2022-11-15T01:39:58;99783.43;;;12.82;59.08
55517;BME280;41724;51.176;-0.708;2022-11-15T01:42:26;99784.86;;;13.25;57.68
55517;BME280;41724;51.176;-0.708;2022-11-15T01:44:53;99774.08;;;12.94;58.09
55517;BME280;41724;51.176;-0.708;2022-11-15T01:47:23;99765.65;;;12.30;59.83
55517;BME280;41724;51.176;-0.708;2022-11-15T01:49:57;99755.03;;;12.88;59.99
55517;BME280;41724;51.176;-0.708;2022-11-15T01:52:29;99752.47;;;12.99;58.50
55517;BME280;41724;51.176;-0.708;2022-11-15T01:55:03;99751.88;;;12.93;58.91
55517;BME280;41724;51.176;-0.708;2022-11-15T01:57:33;99746.69;;;13.14;59.24
55517;BME280;41724;51.176;-0.708;2022-11-15T02:00:03;99740.17;;;12.89;58.88
55517;BME280;41724;51.176;-0.708;2022-11-15T02:02:30;99738.55;;;12.77;58.74
55517;BME280;41724;51.176;-0.708;2022-11-15T02:04:58;99734.51;;;12.37;61.52
55517;BME280;41724;51.176;-0.708;2022-11-15T02:07:25;99730.12;;;12.52;60.95
55517;BME280;41724;51.176;-0.708;2022-11-15T02:09:52;99726.76;;;12.56;61.03
55517;BME280;41724;51.176;-0.708;2022-11-15T02:12:21;99719.76;;;12.37;60.91
55517;BME280;41724;51.176;-0.708;2022-11-15T02:14:53;99720.47;;;12.67;60.90
55517;BME280;41724;51.176;-0.708;2022-11-15T02:17:33;99711.97;;;12.28;60.50
55517;BME280;41724;51.176;-0.708;2022-11-15T02:20:43;99709.20;;;12.91;59.01
55517;BME280;41724;51.176;-0.708;2022-11-15T02:24:32;99701.19;;;13.38;59.64
55517;BME280;41724;51.176;-0.708;2022-11-15T02:27:20;99683.57;;;13.41;59.13
55517;BME280;41724;51.176;-0.708;2022-11-15T02:30:04;99681.28;;;12.61;60.59
55517;BME280;41724;51.176;-0.708;2022-11-15T02:32:40;99676.65;;;12.74;60.23
55517;BME280;41724;51.176;-0.708;2022-11-15T02:35:16;99682.04;;;12.93;60.63
55517;BME280;41724;51.176;-0.708;2022-11-15T02:37:51;99672.80;;;13.46;59.61
55517;BME280;41724;51.176;-0.708;2022-11-15T02:40:28;99664.06;;;13.74;59.32
55517;BME280;41724;51.176;-0.708;2022-11-15T02:43:07;99660.20;;;12.59;61.34
55517;BME280;41724;51.176;-0.708;2022-11-15T02:45:39;99654.58;;;12.86;61.43
55517;BME280;41724;51.176;-0.708;2022-11-15T02:48:09;99644.39;;;13.35;60.12
55517;BME280;41724;51.176;-0.708;2022-11-15T02:50:37;99644.15;;;13.14;61.87
55517;BME280;41724;51.176;-0.708;2022-11-15T02:53:05;99635.94;;;13.39;61.63
55517;BME280;41724;51.176;-0.708;2022-11-15T02:55:33;99640.58;;;13.71;60.48
55517;BME280;41724;51.176;-0.708;2022-11-15T02:58:36;99633.79;;;12.54;64.23
55517;BME280;41724;51.176;-0.708;2022-11-15T03:01:13;99623.97;;;11.46;68.45
55517;BME280;41724;51.176;-0.708;2022-11-15T03:03:59;99621.78;;;10.86;72.27
55517;BME280;41724;51.176;-0.708;2022-11-15T03:06:36;99620.11;;;11.34;69.30
55517;BME280;41724;51.176;-0.708;2022-11-15T03:09:13;99608.16;;;11.75;68.90
55517;BME280;41724;51.176;-0.708;2022-11-15T03:11:47;99601.41;;;11.21;72.37
55517;BME280;41724;51.176;-0.708;2022-11-15T03:14:23;99601.55;;;10.38;74.64
55517;BME280;41724;51.176;-0.708;2022-11-15T03:17:00;99598.00;;;10.83;72.30
55517;BME280;41724;51.176;-0.708;2022-11-15T03:19:35;99607.29;;;11.76;70.35
55517;BME280;41724;51.176;-0.708;2022-11-15T03:22:08;99597.58;;;11.89;69.38
55517;BME280;41724;51.176;-0.708;2022-11-15T03:24:39;99589.65;;;11.85;69.57
55517;BME280;41724;51.176;-0.708;2022-11-15T03:27:09;99595.24;;;12.16;69.23
55517;BME280;41724;51.176;-0.708;2022-11-15T03:29:41;99595.18;;;11.40;72.34
55517;BME280;41724;51.176;-0.708;2022-11-15T03:32:15;99591.03;;;11.14;73.74
55517;BME280;41724;51.176;-0.708;2022-11-15T03:34:46;99580.75;;;11.13;72.69
55517;BME280;41724;51.176;-0.708;2022-11-15T03:37:15;99577.04;;;12.12;69.21
55517;BME280;41724;51.176;-0.708;2022-11-15T03:39:43;99574.41;;;11.16;71.56
55517;BME280;41724;51.176;-0.708;2022-11-15T03:42:20;99566.35;;;11.87;70.23
55517;BME280;41724;51.176;-0.708;2022-11-15T03:44:54;99565.24;;;11.50;71.34
55517;BME280;41724;51.176;-0.708;2022-11-15T03:47:29;99567.40;;;11.74;69.84
55517;BME280;41724;51.176;-0.708;2022-11-15T03:50:00;99559.90;;;11.21;73.27
55517;BME280;41724;51.176;-0.708;2022-11-15T03:52:32;99555.88;;;11.27;72.39
55517;BME280;41724;51.176;-0.708;2022-11-15T03:55:01;99554.31;;;12.15;70.06
55517;BME280;41724;51.176;-0.708;2022-11-15T03:57:29;99534.84;;;12.23;70.67
55517;BME280;41724;51.176;-0.708;2022-11-15T03:59:56;99542.73;;;10.88;76.92
55517;BME280;41724;51.176;-0.708;2022-11-15T04:02:23;99527.15;;;11.05;76.86
55517;BME280;41724;51.176;-0.708;2022-11-15T04:04:50;99522.54;;;12.48;71.02
55517;BME280;41724;51.176;-0.708;2022-11-15T04:07:17;99519.00;;;11.73;73.95
55517;BME280;41724;51.176;-0.708;2022-11-15T04:09:44;99508.09;;;12.45;70.54
55517;BME280;41724;51.176;-0.708;2022-11-15T04:12:11;99497.38;;;12.38;70.98
55517;BME280;41724;51.176;-0.708;2022-11-15T04:14:38;99496.24;;;11.98;72.26
55517;BME280;41724;51.176;-0.708;2022-11-15T04:17:05;99495.94;;;11.91;72.48
55517;BME280;41724;51.176;-0.708;2022-11-15T04:19:31;99488.71;;;12.06;71.84
55517;BME280;41724;51.176;-0.708;2022-11-15T04:21:58;99485.61;;;12.26;71.08
55517;BME280;41724;51.176;-0.708;2022-11-15T04:24:25;99491.76;;;11.47;73.10
55517;BME280;41724;51.176;-0.708;2022-11-15T04:26:52;99482.74;;;12.06;71.19
55517;BME280;41724;51.176;-0.708;2022-11-15T04:29:19;99467.55;;;12.22;71.83
55517;BME280;41724;51.176;-0.708;2022-11-15T04:31:46;99464.49;;;12.29;70.29
55517;BME280;41724;51.176;-0.708;2022-11-15T04:34:13;99455.72;;;12.57;67.55
55517;BME280;41724;51.176;-0.708;2022-11-15T04:36:40;99457.64;;;12.62;68.32
55517;BME280;41724;51.176;-0.708;2022-11-15T04:39:07;99455.51;;;11.88;71.03
55517;BME280;41724;51.176;-0.708;2022-11-15T04:41:34;99444.70;;;12.66;68.10
55517;BME280;41724;51.176;-0.708;2022-11-15T04:44:01;99444.63;;;12.84;67.38
55517;BME280;41724;51.176;-0.708;2022-11-15T04:46:28;99444.61;;;12.36;68.70
55517;BME280;41724;51.176;-0.708;2022-11-15T04:48:55;99442.78;;;12.78;67.34
55517;BME280;41724;51.176;-0.708;2022-11-15T04:51:22;99437.01;;;13.17;66.35
55517;BME280;41724;51.176;-0.708;2022-11-15T04:53:49;99439.18;;;12.46;70.91
55517;BME280;41724;51.176;-0.708;2022-11-15T04:56:16;99433.24;;;12.06;73.32
55517;BME280;41724;51.176;-0.708;2022-11-15T04:58:43;99430.07;;;13.04;69.66
55517;BME280;41724;51.176;-0.708;2022-11-15T05:01:10;99429.18;;;13.56;68.59
55517;BME280;41724;51.176;-0.708;2022-11-15T05:03:38;99417.06;;;12.17;72.31
55517;BME280;41724;51.176;-0.708;2022-11-15T05:06:05;99410.52;;;12.50;73.38
55517;BME280;41724;51.176;-0.708;2022-11-15T05:08:33;99406.69;;;12.61;73.29
55517;BME280;41724;51.176;-0.708;2022-11-15T05:10:59;99400.22;;;13.52;70.59
55517;BME280;41724;51.176;-0.708;2022-11-15T05:13:26;99390.70;;;13.30;70.85
55517;BME280;41724;51.176;-0.708;2022-11-15T05:15:53;99388.29;;;12.90;72.80
55517;BME280;41724;51.176;-0.708;2022-11-15T05:18:20;99383.30;;;12.96;72.85
55517;BME280;41724;51.176;-0.708;2022-11-15T05:20:47;99377.80;;;12.00;75.03
55517;BME280;41724;51.176;-0.708;2022-11-15T05:23:15;99372.43;;;12.24;75.74
55517;BME280;41724;51.176;-0.708;2022-11-15T05:25:42;99362.26;;;12.46;77.31
55517;BME280;41724;51.176;-0.708;2022-11-15T05:28:09;99357.68;;;12.84;75.83
55517;BME280;41724;51.176;-0.708;2022-11-15T05:30:36;99349.48;;;13.15;73.17
55517;BME280;41724;51.176;-0.708;2022-11-15T05:33:03;99346.55;;;13.21;72.24
55517;BME280;41724;51.176;-0.708;2022-11-15T05:35:34;99350.37;;;13.23;75.03
55517;BME280;41724;51.176;-0.708;2022-11-15T05:38:05;99349.68;;;12.33;77.93
55517;BME280;41724;51.176;-0.708;2022-11-15T05:40:33;99343.25;;;13.12;75.51
55517;BME280;41724;51.176;-0.708;2022-11-15T05:43:02;99341.30;;;13.41;75.45
55517;BME280;41724;51.176;-0.708;2022-11-15T05:45:31;99337.32;;;12.73;77.26
55517;BME280;41724;51.176;-0.708;2022-11-15T05:48:03;99326.55;;;11.62;80.57
55517;BME280;41724;51.176;-0.708;2022-11-15T05:50:32;99327.24;;;12.02;80.54
55517;BME280;41724;51.176;-0.708;2022-11-15T05:53:01;99322.61;;;12.31;78.99
55517;BME280;41724;51.176;-0.708;2022-11-15T05:55:28;99324.62;;;12.37;77.97
55517;BME280;41724;51.176;-0.708;2022-11-15T05:57:55;99319.65;;;11.53;82.72
55517;BME280;41724;51.176;-0.708;2022-11-15T06:00:23;99321.12;;;11.17;85.75
55517;BME280;41724;51.176;-0.708;2022-11-15T06:02:49;99307.51;;;12.00;82.25
55517;BME280;41724;51.176;-0.708;2022-11-15T06:05:16;99299.69;;;11.91;82.47
55517;BME280;41724;51.176;-0.708;2022-11-15T06:07:43;99297.92;;;11.19;84.97
55517;BME280;41724;51.176;-0.708;2022-11-15T06:10:11;99290.34;;;12.39;81.71
55517;BME280;41724;51.176;-0.708;2022-11-15T06:12:38;99290.03;;;12.07;80.62
55517;BME280;41724;51.176;-0.708;2022-11-15T06:15:05;99287.44;;;10.54;86.52
55517;BME280;41724;51.176;-0.708;2022-11-15T06:17:32;99288.17;;;10.82;86.51
55517;BME280;41724;51.176;-0.708;2022-11-15T06:19:59;99282.59;;;9.70;93.03
55517;BME280;41724;51.176;-0.708;2022-11-15T06:22:26;99269.17;;;11.28;85.97
55517;BME280;41724;51.176;-0.708;2022-11-15T06:24:54;99263.50;;;12.28;81.66
55517;BME280;41724;51.176;-0.708;2022-11-15T06:27:21;99260.22;;;12.19;82.33
55517;BME280;41724;51.176;-0.708;2022-11-15T06:29:48;99253.50;;;12.14;81.32
55517;BME280;41724;51.176;-0.708;2022-11-15T06:32:15;99254.81;;;11.73;84.40
55517;BME280;41724;51.176;-0.708;2022-11-15T06:34:42;99250.03;;;11.77;84.77
55517;BME280;41724;51.176;-0.708;2022-11-15T06:37:09;99244.82;;;11.80;83.96
55517;BME280;41724;51.176;-0.708;2022-11-15T06:39:36;99242.05;;;11.81;85.41
55517;BME280;41724;51.176;-0.708;2022-11-15T06:42:03;99242.02;;;12.09;84.05
55517;BME280;41724;51.176;-0.708;2022-11-15T06:44:30;99236.10;;;11.69;86.02
55517;BME280;41724;51.176;-0.708;2022-11-15T06:46:57;99238.87;;;12.33;82.12
55517;BME280;41724;51.176;-0.708;2022-11-15T06:49:24;99231.97;;;11.94;85.70
55517;BME280;41724;51.176;-0.708;2022-11-15T06:51:51;99238.60;;;10.91;88.84
55517;BME280;41724;51.176;-0.708;2022-11-15T06:54:18;99225.48;;;11.58;86.92
55517;BME280;41724;51.176;-0.708;2022-11-15T06:56:45;99231.35;;;10.55;90.84
55517;BME280;41724;51.176;-0.708;2022-11-15T06:59:12;99221.35;;;12.12;84.92
55517;BME280;41724;51.176;-0.708;2022-11-15T07:01:39;99209.69;;;12.44;81.54
55517;BME280;41724;51.176;-0.708;2022-11-15T07:04:06;99211.82;;;12.61;81.23
55517;BME280;41724;51.176;-0.708;2022-11-15T07:06:33;99209.45;;;12.62;81.57
55517;BME280;41724;51.176;-0.708;2022-11-15T07:09:02;99208.08;;;12.92;78.13
55517;BME280;41724;51.176;-0.708;2022-11-15T07:11:29;99207.53;;;12.21;81.09
55517;BME280;41724;51.176;-0.708;2022-11-15T07:13:56;99210.61;;;12.51;81.03
55517;BME280;41724;51.176;-0.708;2022-11-15T07:16:23;99207.25;;;12.30;82.54
55517;BME280;41724;51.176;-0.708;2022-11-15T07:18:50;99201.25;;;12.23;82.61
55517;BME280;41724;51.176;-0.708;2022-11-15T07:21:17;99205.16;;;11.55;83.78
55517;BME280;41724;51.176;-0.708;2022-11-15T07:23:44;99187.43;;;12.44;80.98
55517;BME280;41724;51.176;-0.708;2022-11-15T07:26:11;99198.26;;;11.46;86.78
55517;BME280;41724;51.176;-0.708;2022-11-15T07:28:38;99196.83;;;11.74;84.37
55517;BME280;41724;51.176;-0.708;2022-11-15T07:31:07;99191.91;;;11.61;85.93
55517;BME280;41724;51.176;-0.708;2022-11-15T07:33:35;99186.24;;;11.39;86.98
55517;BME280;41724;51.176;-0.708;2022-11-15T07:36:04;99194.84;;;11.28;87.52
55517;BME280;41724;51.176;-0.708;2022-11-15T07:38:33;99188.33;;;12.36;83.28
55517;BME280;41724;51.176;-0.708;2022-11-15T07:41:02;99182.39;;;12.05;85.26
55517;BME280;41724;51.176;-0.708;2022-11-15T07:43:29;99179.69;;;12.18;81.19
55517;BME280;41724;51.176;-0.708;2022-11-15T07:45:56;99184.80;;;11.80;84.98
55517;BME280;41724;51.176;-0.708;2022-11-15T07:48:24;99183.69;;;11.74;85.58
55517;BME280;41724;51.176;-0.708;2022-11-15T07:50:51;99179.98;;;12.77;81.90
55517;BME280;41724;51.176;-0.708;2022-11-15T07:53:18;99178.20;;;12.64;81.40
55517;BME280;41724;51.176;-0.708;2022-11-15T07:55:45;99174.86;;;12.97;80.52
55517;BME280;41724;51.176;-0.708;2022-11-15T07:58:12;99170.87;;;12.99;81.68
55517;BME280;41724;51.176;-0.708;2022-11-15T08:00:40;99169.39;;;11.71;84.86
55517;BME280;41724;51.176;-0.708;2022-11-15T08:03:08;99162.22;;;12.39;83.38
55517;BME280;41724;51.176;-0.708;2022-11-15T08:05:37;99166.51;;;12.22;82.24
55517;BME280;41724;51.176;-0.708;2022-11-15T08:08:04;99165.71;;;12.66;81.28
55517;BME280;41724;51.176;-0.708;2022-11-15T08:10:33;99154.87;;;12.38;81.81
55517;BME280;41724;51.176;-0.708;2022-11-15T08:13:02;99152.46;;;12.85;81.12
55517;BME280;41724;51.176;-0.708;2022-11-15T08:15:30;99150.04;;;13.08;79.68
55517;BME280;41724;51.176;-0.708;2022-11-15T08:17:58;99149.54;;;12.13;83.85
55517;BME280;41724;51.176;-0.708;2022-11-15T08:20:27;99154.41;;;12.80;81.63
55517;BME280;41724;51.176;-0.708;2022-11-15T08:22:54;99146.72;;;13.65;79.99
55517;BME280;41724;51.176;-0.708;2022-11-15T08:25:21;99144.52;;;12.37;84.45
55517;BME280;41724;51.176;-0.708;2022-11-15T08:27:51;99138.26;;;12.38;82.92
55517;BME280;41724;51.176;-0.708;2022-11-15T08:30:17;99135.82;;;11.41;86.89
55517;BME280;41724;51.176;-0.708;2022-11-15T08:32:44;99133.37;;;13.20;80.95
55517;BME280;41724;51.176;-0.708;2022-11-15T08:35:11;99132.33;;;13.14;79.60
55517;BME280;41724;51.176;-0.708;2022-11-15T08:37:38;99126.91;;;11.52;85.51
55517;BME280;41724;51.176;-0.708;2022-11-15T08:40:06;99135.21;;;12.40;85.40
55517;BME280;41724;51.176;-0.708;2022-11-15T08:42:33;99125.81;;;11.95;87.96
55517;BME280;41724;51.176;-0.708;2022-11-15T08:45:00;99116.71;;;12.22;87.50
55517;BME280;41724;51.176;-0.708;2022-11-15T08:47:27;99114.49;;;11.96;88.01
55517;BME280;41724;51.176;-0.708;2022-11-15T08:49:54;99104.58;;;12.39;85.28
55517;BME280;41724;51.176;-0.708;2022-11-15T08:52:21;99100.89;;;11.14;89.06
55517;BME280;41724;51.176;-0.708;2022-11-15T08:54:48;99096.49;;;11.69;89.14
55517;BME280;41724;51.176;-0.708;2022-11-15T08:57:15;99100.02;;;10.33;98.74
55517;BME280;41724;51.176;-0.708;2022-11-15T08:59:42;99089.63;;;10.89;95.58
55517;BME280;41724;51.176;-0.708;2022-11-15T09:02:11;99089.94;;;10.94;95.36
55517;BME280;41724;51.176;-0.708;2022-11-15T09:04:40;99079.85;;;11.38;92.24
55517;BME280;41724;51.176;-0.708;2022-11-15T09:07:07;99069.73;;;10.68;94.45
55517;BME280;41724;51.176;-0.708;2022-11-15T09:09:34;99059.33;;;11.45;92.84
55517;BME280;41724;51.176;-0.708;2022-11-15T09:12:01;99060.96;;;12.07;91.37
55517;BME280;41724;51.176;-0.708;2022-11-15T09:14:29;99059.07;;;11.03;92.87
55517;BME280;41724;51.176;-0.708;2022-11-15T09:16:56;99056.96;;;11.75;91.14
55517;BME280;41724;51.176;-0.708;2022-11-15T09:19:24;99049.94;;;10.68;94.56
55517;BME280;41724;51.176;-0.708;2022-11-15T09:21:51;99040.16;;;11.55;91.67
55517;BME280;41724;51.176;-0.708;2022-11-15T09:24:18;99026.69;;;12.20;88.78
55517;BME280;41724;51.176;-0.708;2022-11-15T09:26:45;99025.90;;;12.50;87.72
55517;BME280;41724;51.176;-0.708;2022-11-15T09:29:13;99021.18;;;12.01;90.22
55517;BME280;41724;51.176;-0.708;2022-11-15T09:31:40;99011.44;;;12.34;88.97
55517;BME280;41724;51.176;-0.708;2022-11-15T09:34:08;99014.04;;;12.06;86.67
55517;BME280;41724;51.176;-0.708;2022-11-15T09:36:35;99009.55;;;12.13;87.17
55517;BME280;41724;51.176;-0.708;2022-11-15T09:39:02;99012.98;;;12.11;89.69
55517;BME280;41724;51.176;-0.708;2022-11-15T09:41:50;99016.32;;;12.78;85.00
55517;BME280;41724;51.176;-0.708;2022-11-15T09:44:37;99004.54;;;11.18;92.62
55517;BME280;41724;51.176;-0.708;2022-11-15T09:47:27;98996.50;;;12.02;89.53
55517;BME280;41724;51.176;-0.708;2022-11-15T09:50:00;99002.49;;;12.92;85.44
55517;BME280;41724;51.176;-0.708;2022-11-15T09:52:28;98986.77;;;11.45;89.84
55517;BME280;41724;51.176;-0.708;2022-11-15T09:54:55;98985.71;;;11.59;92.50
55517;BME280;41724;51.176;-0.708;2022-11-15T09:57:32;98979.57;;;11.94;90.20
55517;BME280;41724;51.176;-0.708;2022-11-15T10:00:12;98978.81;;;12.52;88.39
55517;BME280;41724;51.176;-0.708;2022-11-15T10:03:01;98977.90;;;11.67;88.90
55517;BME280;41724;51.176;-0.708;2022-11-15T10:05:37;98972.05;;;12.26;88.65
55517;BME280;41724;51.176;-0.708;2022-11-15T10:08:13;98963.38;;;11.78;91.70
55517;BME280;41724;51.176;-0.708;2022-11-15T10:10:48;98954.66;;;12.40;90.86
55517;BME280;41724;51.176;-0.708;2022-11-15T10:13:19;98957.03;;;11.76;92.12
55517;BME280;41724;51.176;-0.708;2022-11-15T10:15:52;98951.04;;;11.55;91.24
55517;BME280;41724;51.176;-0.708;2022-11-15T10:18:24;98941.67;;;11.76;91.98
55517;BME280;41724;51.176;-0.708;2022-11-15T10:20:59;98938.66;;;11.57;93.04
55517;BME280;41724;51.176;-0.708;2022-11-15T10:23:27;98935.66;;;11.11;96.49
55517;BME280;41724;51.176;-0.708;2022-11-15T10:25:57;98929.13;;;11.49;94.10
55517;BME280;41724;51.176;-0.708;2022-11-15T10:28:27;98925.07;;;11.76;92.88
55517;BME280;41724;51.176;-0.708;2022-11-15T10:30:56;98910.52;;;11.92;91.97
55517;BME280;41724;51.176;-0.708;2022-11-15T10:33:29;98915.35;;;11.67;93.34
55517;BME280;41724;51.176;-0.708;2022-11-15T10:36:29;98913.91;;;11.71;92.26
55517;BME280;41724;51.176;-0.708;2022-11-15T10:38:57;98914.82;;;11.78;92.77
55517;BME280;41724;51.176;-0.708;2022-11-15T10:41:36;98905.70;;;11.50;94.12
55517;BME280;41724;51.176;-0.708;2022-11-15T10:44:18;98905.61;;;11.75;92.60
55517;BME280;41724;51.176;-0.708;2022-11-15T10:46:47;98904.44;;;11.07;97.51
55517;BME280;41724;51.176;-0.708;2022-11-15T10:49:16;98899.25;;;11.79;94.90
55517;BME280;41724;51.176;-0.708;2022-11-15T10:51:46;98899.85;;;11.05;98.36
55517;BME280;41724;51.176;-0.708;2022-11-15T10:54:19;98905.08;;;11.58;95.64
55517;BME280;41724;51.176;-0.708;2022-11-15T10:56:52;98892.85;;;11.03;97.97
55517;BME280;41724;51.176;-0.708;2022-11-15T10:59:26;98881.64;;;11.85;94.36
55517;BME280;41724;51.176;-0.708;2022-11-15T11:01:54;98875.36;;;11.62;95.18
55517;BME280;41724;51.176;-0.708;2022-11-15T11:04:21;98871.45;;;11.30;97.17
55517;BME280;41724;51.176;-0.708;2022-11-15T11:06:50;98867.53;;;11.59;94.40
55517;BME280;41724;51.176;-0.708;2022-11-15T11:09:28;98862.21;;;11.43;95.48
55517;BME280;41724;51.176;-0.708;2022-11-15T11:11:55;98860.09;;;11.11;99.42
55517;BME280;41724;51.176;-0.708;2022-11-15T11:14:24;98844.56;;;10.66;97.25
55517;BME280;41724;51.176;-0.708;2022-11-15T11:16:55;98834.43;;;11.04;97.03
55517;BME280;41724;51.176;-0.708;2022-11-15T11:19:45;98842.14;;;11.23;96.83
55517;BME280;41724;51.176;-0.708;2022-11-15T11:22:19;98833.49;;;11.84;96.28
55517;BME280;41724;51.176;-0.708;2022-11-15T11:24:56;98807.49;;;11.70;93.98
55517;BME280;41724;51.176;-0.708;2022-11-15T11:27:36;98805.03;;;11.90;94.41
55517;BME280;41724;51.176;-0.708;2022-11-15T11:30:10;98797.77;;;11.40;93.45
55517;BME280;41724;51.176;-0.708;2022-11-15T11:32:52;98796.30;;;11.80;94.19
55517;BME280;41724;51.176;-0.708;2022-11-15T11:35:28;98799.49;;;11.41;97.04
55517;BME280;41724;51.176;-0.708;2022-11-15T11:38:04;98801.49;;;11.39;97.65
55517;BME280;41724;51.176;-0.708;2022-11-15T11:40:37;98795.65;;;10.27;100.00
55517;BME280;41724;51.176;-0.708;2022-11-15T11:43:13;98799.23;;;11.00;100.00
55517;BME280;41724;51.176;-0.708;2022-11-15T11:46:06;98784.44;;;10.87;100.00
55517;BME280;41724;51.176;-0.708;2022-11-15T11:48:43;98775.09;;;10.80;98.83
55517;BME280;41724;51.176;-0.708;2022-11-15T11:51:16;98777.66;;;11.60;97.18
55517;BME280;41724;51.176;-0.708;2022-11-15T11:53:50;98776.21;;;11.41;99.06
55517;BME280;41724;51.176;-0.708;2022-11-15T11:56:26;98757.48;;;11.38;98.70
55517;BME280;41724;51.176;-0.708;2022-11-15T11:58:56;98752.67;;;10.93;100.00
55517;BME280;41724;51.176;-0.708;2022-11-15T12:01:32;98745.74;;;10.36;100.00
55517;BME280;41724;51.176;-0.708;2022-11-15T12:04:05;98738.10;;;10.69;100.00
55517;BME280;41724;51.176;-0.708;2022-11-15T12:06:42;98737.16;;;11.52;98.60
55517;BME280;41724;51.176;-0.708;2022-11-15T12:09:16;98736.42;;;11.25;98.97
55517;BME280;41724;51.176;-0.708;2022-11-15T12:11:51;98728.13;;;11.18;99.48
55517;BME280;41724;51.176;-0.708;2022-11-15T12:14:27;98721.58;;;11.66;98.34
55517;BME280;41724;51.176;-0.708;2022-11-15T12:16:57;98737.47;;;12.13;97.17
55517;BME280;41724;51.176;-0.708;2022-11-15T12:19:25;98742.95;;;12.12;95.01
55517;BME280;41724;51.176;-0.708;2022-11-15T12:21:58;98726.29;;;11.91;96.76
55517;BME280;41724;51.176;-0.708;2022-11-15T12:24:32;98722.06;;;12.34;92.35
55517;BME280;41724;51.176;-0.708;2022-11-15T12:27:05;98715.08;;;12.35;92.59
55517;BME280;41724;51.176;-0.708;2022-11-15T12:29:38;98725.46;;;12.60;91.96
55517;BME280;41724;51.176;-0.708;2022-11-15T12:32:18;98733.40;;;12.23;93.04
55517;BME280;41724;51.176;-0.708;2022-11-15T12:34:49;98733.68;;;12.67;91.32
55517;BME280;41724;51.176;-0.708;2022-11-15T12:37:34;98733.02;;;12.67;89.89
55517;BME280;41724;51.176;-0.708;2022-11-15T12:40:21;98728.75;;;13.32;88.45
55517;BME280;41724;51.176;-0.708;2022-11-15T12:43:54;98730.06;;;13.78;87.11
55517;BME280;41724;51.176;-0.708;2022-11-15T12:46:58;98733.62;;;13.02;86.97
55517;BME280;41724;51.176;-0.708;2022-11-15T12:49:45;98728.92;;;13.01;85.90
55517;BME280;41724;51.176;-0.708;2022-11-15T12:52:12;98739.18;;;13.18;87.21
55517;BME280;41724;51.176;-0.708;2022-11-15T12:54:58;98737.14;;;13.31;85.47
55517;BME280;41724;51.176;-0.708;2022-11-15T12:57:35;98753.24;;;13.26;86.83
55517;BME280;41724;51.176;-0.708;2022-11-15T13:00:44;98760.55;;;13.92;87.48
55517;BME280;41724;51.176;-0.708;2022-11-15T13:03:28;98757.12;;;14.20;85.05
55517;BME280;41724;51.176;-0.708;2022-11-15T13:06:05;98765.81;;;13.36;85.81
55517;BME280;41724;51.176;-0.708;2022-11-15T13:08:43;98766.54;;;12.76;88.10
55517;BME280;41724;51.176;-0.708;2022-11-15T13:12:51;98772.41;;;14.00;85.19